Time;durP1;ratioP1;P1;durP2;ratioP2;P2;SDS_P1;SDS_P2;PMS_P1;PMS_P2;Temp;Humidity;BMP_temperature;BMP_pressure;BME280_temperature;BME280_humidity;BME280_pressure;Samples;Min_cycle;Max_cycle;Signal;HPM_P1;HPM_P2
2021/09/22 00:01:09;;;;;;;;;;;;;;;16.81;100.00;100299.78;5087860;28;19926;-79
2021/09/22 00:03:36;;;;;;;;;;;;;;;16.89;100.00;100306.88;5071349;28;19924;-79
2021/09/22 00:06:03;;;;;;;;;;;;;;;17.06;100.00;100302.06;5056091;28;20380;-79
2021/09/22 00:08:30;;;;;;;;;;;;;;;16.88;100.00;100310.13;5067939;28;19951;-79
2021/09/22 00:10:57;;;;;;;;;;;;;;;17.04;100.00;100304.56;5069983;28;20423;-79
2021/09/22 00:13:24;;;;;;;;;;;;;;;17.10;100.00;100317.69;5068067;28;20024;-79
2021/09/22 00:15:53;;;;;;;;;;;;;;;16.92;100.00;100303.19;5085217;28;19924;-79
2021/09/22 00:18:20;;;;;;;;;;;;;;;16.88;100.00;100301.66;5106721;28;19959;-79
2021/09/22 00:20:47;;;;;;;;;;;;;;;16.87;100.00;100306.53;5104214;28;20335;-79
2021/09/22 00:23:15;;;;;;;;;;;;;;;16.96;100.00;100305.94;5094926;28;19924;-78
2021/09/22 00:25:42;;;;;;;;;;;;;;;16.91;100.00;100292.31;5111697;28;19924;-79
2021/09/22 00:28:09;;;;;;;;;;;;;;;16.80;100.00;100294.56;5094849;28;19924;-79
2021/09/22 00:30:37;;;;;;;;;;;;;;;16.92;100.00;100294.72;5112797;28;19924;-79
2021/09/22 00:33:07;;;;;;;;;;;;;;;16.79;100.00;100293.81;5080496;28;19931;-78
2021/09/22 00:35:35;;;;;;;;;;;;;;;16.92;100.00;100299.59;5094701;28;19924;-79
2021/09/22 00:38:03;;;;;;;;;;;;;;;16.98;100.00;100297.84;5111575;28;19923;-78
2021/09/22 00:40:30;;;;;;;;;;;;;;;16.84;100.00;100298.13;5054506;28;19925;-79
2021/09/22 00:42:58;;;;;;;;;;;;;;;16.84;100.00;100286.84;5096458;28;19923;-79
2021/09/22 00:45:25;;;;;;;;;;;;;;;16.88;100.00;100281.91;5112291;28;19985;-79
2021/09/22 00:47:52;;;;;;;;;;;;;;;16.95;100.00;100276.91;5080665;28;19928;-79
2021/09/22 00:50:33;;;;;;;;;;;;;;;16.66;100.00;100275.16;5054850;28;19928;-79
2021/09/22 00:53:00;;;;;;;;;;;;;;;16.79;100.00;100278.88;5111477;28;20019;-79
2021/09/22 00:55:28;;;;;;;;;;;;;;;16.82;100.00;100283.66;5111704;28;19973;-78
2021/09/22 00:57:56;;;;;;;;;;;;;;;16.85;100.00;100277.13;5060840;28;20010;-79
2021/09/22 01:00:24;;;;;;;;;;;;;;;16.93;100.00;100284.22;5094257;28;20227;-79
2021/09/22 01:02:51;;;;;;;;;;;;;;;16.65;100.00;100279.97;5111530;28;19963;-78
2021/09/22 01:05:21;;;;;;;;;;;;;;;16.59;100.00;100281.72;5112809;28;20373;-79
2021/09/22 01:07:48;;;;;;;;;;;;;;;16.74;100.00;100273.75;5112353;28;19924;-79
2021/09/22 01:10:16;;;;;;;;;;;;;;;16.96;100.00;100277.69;5111024;28;19924;-79
2021/09/22 01:12:44;;;;;;;;;;;;;;;16.72;100.00;100276.22;5112331;28;19956;-79
2021/09/22 01:15:23;;;;;;;;;;;;;;;16.94;100.00;100280.16;5103727;28;20290;-79
2021/09/22 01:17:52;;;;;;;;;;;;;;;16.78;100.00;100266.78;5125302;27;19947;-79
2021/09/22 01:20:19;;;;;;;;;;;;;;;16.42;100.00;100276.44;5115124;28;19924;-79
2021/09/22 01:22:47;;;;;;;;;;;;;;;16.53;100.00;100265.72;5098043;28;19946;-78
2021/09/22 01:25:14;;;;;;;;;;;;;;;16.75;100.00;100269.72;5081163;28;19997;-79
2021/09/22 01:27:49;;;;;;;;;;;;;;;16.55;100.00;100272.56;5114745;28;20026;-79
2021/09/22 01:30:18;;;;;;;;;;;;;;;16.46;100.00;100272.34;5074209;28;20337;-79
2021/09/22 01:32:57;;;;;;;;;;;;;;;16.62;100.00;100268.75;5086125;28;19924;-79
2021/09/22 01:35:39;;;;;;;;;;;;;;;15.99;100.00;100265.97;5074102;28;19928;-79
2021/09/22 01:38:22;;;;;;;;;;;;;;;15.76;100.00;100263.19;5106037;28;20387;-78
2021/09/22 01:41:00;;;;;;;;;;;;;;;15.36;100.00;100266.25;5114569;28;19966;-79
2021/09/22 01:43:30;;;;;;;;;;;;;;;15.88;100.00;100271.03;5112072;28;19946;-78
2021/09/22 01:45:58;;;;;;;;;;;;;;;15.51;100.00;100270.50;5102711;28;20022;-79
2021/09/22 01:48:26;;;;;;;;;;;;;;;15.49;100.00;100265.28;5112648;28;19927;-79
2021/09/22 01:50:56;;;;;;;;;;;;;;;16.06;100.00;100277.13;5092997;28;20298;-79
2021/09/22 01:53:24;;;;;;;;;;;;;;;16.24;100.00;100268.31;5104207;28;20374;-79
2021/09/22 01:55:52;;;;;;;;;;;;;;;15.80;100.00;100263.91;5081782;28;19938;-79
2021/09/22 01:58:22;;;;;;;;;;;;;;;16.30;100.00;100251.69;5113981;28;19977;-78
2021/09/22 02:00:56;;;;;;;;;;;;;;;16.38;100.00;100253.94;5097096;28;20015;-79
2021/09/22 02:03:35;;;;;;;;;;;;;;;16.27;100.00;100261.03;5097441;28;20397;-79
2021/09/22 02:06:09;;;;;;;;;;;;;;;15.98;100.00;100243.84;5111254;28;19932;-78
2021/09/22 02:08:39;;;;;;;;;;;;;;;15.49;100.00;100248.38;5069198;28;19946;-78
2021/09/22 02:11:18;;;;;;;;;;;;;;;15.77;100.00;100245.06;5096620;28;20011;-79
2021/09/22 02:13:46;;;;;;;;;;;;;;;15.93;100.00;100236.69;5104133;28;19931;-78
2021/09/22 02:16:18;;;;;;;;;;;;;;;15.94;100.00;100223.41;5093171;28;20332;-79
2021/09/22 02:19:21;;;;;;;;;;;;;;;15.59;100.00;100230.50;5099906;28;19924;-79
2021/09/22 02:22:08;;;;;;;;;;;;;;;15.37;100.00;100223.63;5114919;28;19924;-79
2021/09/22 02:24:47;;;;;;;;;;;;;;;15.56;100.00;100224.91;5113669;28;19924;-78
2021/09/22 02:27:15;;;;;;;;;;;;;;;15.26;100.00;100227.81;5104965;28;20018;-79
2021/09/22 02:29:42;;;;;;;;;;;;;;;15.61;100.00;100216.78;5108183;28;19977;-78
2021/09/22 02:32:09;;;;;;;;;;;;;;;15.52;100.00;100218.56;5113476;28;19931;-79
2021/09/22 02:34:36;;;;;;;;;;;;;;;15.54;100.00;100211.25;5113514;28;19984;-79
2021/09/22 02:37:04;;;;;;;;;;;;;;;15.45;100.00;100205.38;5082303;28;20019;-79
2021/09/22 02:39:38;;;;;;;;;;;;;;;15.39;100.00;100207.09;5108391;28;19924;-78
2021/09/22 02:42:06;;;;;;;;;;;;;;;15.33;100.00;100207.97;5090240;28;19981;-79
2021/09/22 02:44:33;;;;;;;;;;;;;;;15.20;100.00;100202.19;5092590;28;20303;-79
2021/09/22 02:47:01;;;;;;;;;;;;;;;15.17;100.00;100194.59;5081495;28;19925;-79
2021/09/22 02:49:28;;;;;;;;;;;;;;;14.81;100.00;100196.38;5084328;28;19924;-78
2021/09/22 02:51:59;;;;;;;;;;;;;;;14.89;100.00;100191.44;5095777;28;19923;-78
2021/09/22 02:54:26;;;;;;;;;;;;;;;14.80;100.00;100189.13;5095907;28;19937;-79
2021/09/22 02:57:12;;;;;;;;;;;;;;;14.95;100.00;100190.50;5109326;28;19959;-79
2021/09/22 02:59:39;;;;;;;;;;;;;;;14.77;100.00;100184.38;5069057;28;19924;-79
2021/09/22 03:02:06;;;;;;;;;;;;;;;14.80;100.00;100182.75;5096053;28;19924;-78
2021/09/22 03:04:33;;;;;;;;;;;;;;;14.72;100.00;100175.63;5113087;28;19924;-79
2021/09/22 03:07:00;;;;;;;;;;;;;;;14.46;100.00;100174.38;5112412;28;19930;-78
2021/09/22 03:09:27;;;;;;;;;;;;;;;14.96;100.00;100175.25;5065438;28;19923;-78
2021/09/22 03:11:55;;;;;;;;;;;;;;;14.65;100.00;100170.88;5099526;28;19935;-79
2021/09/22 03:14:22;;;;;;;;;;;;;;;14.94;100.00;100166.41;5094566;28;20363;-78
2021/09/22 03:16:51;;;;;;;;;;;;;;;14.76;100.00;100146.22;5096175;28;20014;-78
2021/09/22 03:19:18;;;;;;;;;;;;;;;14.67;100.00;100150.78;5095539;28;20018;-79
2021/09/22 03:21:45;;;;;;;;;;;;;;;14.70;100.00;100145.09;5103174;28;19928;-78
2021/09/22 03:24:13;;;;;;;;;;;;;;;14.78;100.00;100140.97;5074525;28;19970;-78
2021/09/22 03:26:41;;;;;;;;;;;;;;;14.73;100.00;100138.63;5112487;28;19930;-79
2021/09/22 03:29:09;;;;;;;;;;;;;;;14.69;100.00;100137.09;5095435;28;19924;-79
2021/09/22 03:31:37;;;;;;;;;;;;;;;14.62;100.00;100146.41;5112349;28;20031;-78
2021/09/22 03:34:04;;;;;;;;;;;;;;;14.58;100.00;100142.88;5099547;28;19951;-79
2021/09/22 03:36:31;;;;;;;;;;;;;;;14.56;100.00;100150.13;5096554;28;19923;-79
2021/09/22 03:38:58;;;;;;;;;;;;;;;14.99;100.00;100157.50;5112362;28;19932;-78
2021/09/22 03:41:25;;;;;;;;;;;;;;;14.80;100.00;100157.41;5077997;28;19993;-79
2021/09/22 03:43:53;;;;;;;;;;;;;;;14.88;100.00;100162.50;5082283;28;20019;-79
2021/09/22 03:46:21;;;;;;;;;;;;;;;14.85;100.00;100157.72;5075107;28;19974;-78
2021/09/22 03:48:48;;;;;;;;;;;;;;;15.29;100.00;100159.38;5111085;28;20276;-79
2021/09/22 03:51:15;;;;;;;;;;;;;;;14.93;100.00;100153.56;5095058;28;19938;-79
2021/09/22 03:53:46;;;;;;;;;;;;;;;14.90;100.00;100145.19;5111782;28;19924;-78
2021/09/22 03:56:13;;;;;;;;;;;;;;;15.19;100.00;100141.44;5083254;28;19924;-79
2021/09/22 03:58:40;;;;;;;;;;;;;;;15.35;100.00;100135.94;5078915;28;19934;-78
2021/09/22 04:01:08;;;;;;;;;;;;;;;15.17;100.00;100129.03;5064776;28;20318;-78
2021/09/22 04:03:35;;;;;;;;;;;;;;;15.09;100.00;100128.38;5105042;28;19927;-79
2021/09/22 04:06:03;;;;;;;;;;;;;;;15.12;100.00;100121.88;5111932;28;19948;-79
2021/09/22 04:08:30;;;;;;;;;;;;;;;15.06;100.00;100134.03;5094796;28;19949;-79
2021/09/22 04:10:57;;;;;;;;;;;;;;;14.81;100.00;100126.03;5111892;28;19988;-78
2021/09/22 04:13:25;;;;;;;;;;;;;;;14.82;100.00;100133.25;5081472;28;20307;-79
2021/09/22 04:15:54;;;;;;;;;;;;;;;14.85;100.00;100123.16;5081121;28;19928;-78
2021/09/22 04:18:23;;;;;;;;;;;;;;;14.83;100.00;100139.69;5095109;28;19931;-79
2021/09/22 04:20:50;;;;;;;;;;;;;;;14.66;100.00;100133.09;5093793;28;19924;-79
2021/09/22 04:23:20;;;;;;;;;;;;;;;14.92;100.00;100135.06;5071013;28;19971;-79
2021/09/22 04:25:47;;;;;;;;;;;;;;;14.95;100.00;100122.97;5072775;28;20023;-79
2021/09/22 04:28:14;;;;;;;;;;;;;;;15.74;100.00;100129.59;5112933;28;19924;-78
2021/09/22 04:31:00;;;;;;;;;;;;;;;15.28;100.00;100119.16;5111573;28;19924;-79
2021/09/22 04:33:46;;;;;;;;;;;;;;;15.17;100.00;100118.56;5097347;28;20018;-78
2021/09/22 04:36:31;;;;;;;;;;;;;;;14.89;100.00;100116.25;5112573;28;19930;-78
2021/09/22 04:39:17;;;;;;;;;;;;;;;14.92;100.00;100123.81;5111569;28;20022;-78
2021/09/22 04:42:02;;;;;;;;;;;;;;;15.07;100.00;100133.63;5100278;28;19947;-78
2021/09/22 04:44:48;;;;;;;;;;;;;;;15.08;100.00;100117.53;5111352;28;20463;-79
2021/09/22 04:47:35;;;;;;;;;;;;;;;14.85;100.00;100129.59;5112711;28;19924;-78
2021/09/22 04:50:21;;;;;;;;;;;;;;;14.70;100.00;100122.59;5111438;28;19947;-78
2021/09/22 04:53:06;;;;;;;;;;;;;;;14.75;100.00;100129.75;5096329;28;19923;-78
2021/09/22 04:55:52;;;;;;;;;;;;;;;14.80;100.00;100132.88;5087262;28;20299;-79
2021/09/22 04:58:38;;;;;;;;;;;;;;;14.98;100.00;100124.94;5102122;28;19924;-78
2021/09/22 05:01:23;;;;;;;;;;;;;;;14.70;100.00;100128.22;5115458;28;19924;-79
2021/09/22 05:04:09;;;;;;;;;;;;;;;14.78;100.00;100126.09;5107937;28;19924;-79
2021/09/22 05:06:55;;;;;;;;;;;;;;;15.30;100.00;100119.53;5078155;28;19966;-79
2021/09/22 05:09:41;;;;;;;;;;;;;;;15.06;100.00;100117.97;5116278;28;20013;-78
2021/09/22 05:12:27;;;;;;;;;;;;;;;14.92;100.00;100118.19;5116269;28;20444;-78
2021/09/22 05:15:13;;;;;;;;;;;;;;;15.54;100.00;100117.53;5101817;28;19924;-78
2021/09/22 05:17:58;;;;;;;;;;;;;;;14.95;100.00;100117.34;5116154;28;20260;-78
2021/09/22 05:20:44;;;;;;;;;;;;;;;14.93;100.00;100119.81;5115917;28;19924;-78
2021/09/22 05:23:29;;;;;;;;;;;;;;;15.21;100.00;100136.19;5115130;28;19999;-78
2021/09/22 05:26:15;;;;;;;;;;;;;;;15.41;100.00;100145.50;5116292;27;20068;-78
2021/09/22 05:29:01;;;;;;;;;;;;;;;15.17;100.00;100129.84;5115860;28;20006;-78
2021/09/22 05:31:46;;;;;;;;;;;;;;;15.39;100.00;100142.31;5116031;28;19931;-78
2021/09/22 05:34:32;;;;;;;;;;;;;;;15.24;100.00;100124.06;5115660;28;19976;-78
2021/09/22 05:37:18;;;;;;;;;;;;;;;14.89;100.00;100124.69;5114288;28;19930;-78
2021/09/22 05:40:05;;;;;;;;;;;;;;;14.76;100.00;100132.13;5103547;28;19931;-78
2021/09/22 05:42:51;;;;;;;;;;;;;;;14.87;100.00;100127.16;5115617;28;20023;-79
2021/09/22 05:45:37;;;;;;;;;;;;;;;15.09;100.00;100125.56;5102848;28;20363;-79
2021/09/22 05:48:22;;;;;;;;;;;;;;;14.83;100.00;100103.88;5099021;28;19924;-79
2021/09/22 05:51:08;;;;;;;;;;;;;;;15.10;100.00;100113.06;5107585;28;19924;-78
2021/09/22 05:53:54;;;;;;;;;;;;;;;15.19;100.00;100120.97;5114412;28;19982;-78
2021/09/22 05:56:42;;;;;;;;;;;;;;;15.49;100.00;100104.75;5099900;28;20387;-79
2021/09/22 05:59:29;;;;;;;;;;;;;;;15.22;100.00;100103.22;5104720;28;20390;-79
2021/09/22 06:02:15;;;;;;;;;;;;;;;15.54;100.00;100104.22;5099179;28;19946;-79
2021/09/22 06:05:01;;;;;;;;;;;;;;;15.58;100.00;100104.97;5079447;28;19931;-79
2021/09/22 06:07:46;;;;;;;;;;;;;;;15.32;100.00;100096.56;5105972;28;19924;-79
2021/09/22 06:10:32;;;;;;;;;;;;;;;15.45;100.00;100129.34;5111571;28;20344;-79
2021/09/22 06:13:13;;;;;;;;;;;;;;;15.31;100.00;100114.72;5113851;28;20310;-79
2021/09/22 06:15:40;;;;;;;;;;;;;;;15.74;100.00;100109.84;5113740;28;20295;-79
2021/09/22 06:18:08;;;;;;;;;;;;;;;15.77;100.00;100123.88;5113660;28;19923;-78
2021/09/22 06:20:35;;;;;;;;;;;;;;;16.07;100.00;100122.84;5096745;28;19970;-79
2021/09/22 06:23:02;;;;;;;;;;;;;;;16.22;100.00;100130.56;5115042;28;20415;-78
2021/09/22 06:25:31;;;;;;;;;;;;;;;15.91;100.00;100129.25;5095352;28;20026;-78
2021/09/22 06:27:59;;;;;;;;;;;;;;;15.65;100.00;100132.97;5101908;28;20397;-78
2021/09/22 06:30:27;;;;;;;;;;;;;;;16.12;100.00;100137.25;5114965;28;19946;-78
2021/09/22 06:32:55;;;;;;;;;;;;;;;16.38;100.00;100127.00;5107346;28;19928;-79
2021/09/22 06:35:38;;;;;;;;;;;;;;;16.27;100.00;100129.25;5062180;28;20413;-78
2021/09/22 06:38:12;;;;;;;;;;;;;;;16.73;100.00;100123.38;5080555;28;20438;-79
2021/09/22 06:40:45;;;;;;;;;;;;;;;17.14;100.00;100137.69;5113261;28;20446;-78
2021/09/22 06:43:12;;;;;;;;;;;;;;;17.06;100.00;100127.00;5086214;28;19935;-79
2021/09/22 06:45:40;;;;;;;;;;;;;;;17.13;100.00;100129.66;5056149;28;19924;-79
2021/09/22 06:48:07;;;;;;;;;;;;;;;17.08;100.00;100127.34;5111068;28;19927;-79
2021/09/22 06:50:34;;;;;;;;;;;;;;;17.12;100.00;100125.22;5076218;28;19924;-79
2021/09/22 06:53:01;;;;;;;;;;;;;;;16.80;100.00;100128.03;5106645;28;19927;-78
2021/09/22 06:55:29;;;;;;;;;;;;;;;17.12;100.00;100128.03;5112893;28;20447;-79
2021/09/22 06:57:56;;;;;;;;;;;;;;;16.94;100.00;100127.72;5100955;28;20284;-79
2021/09/22 07:00:23;;;;;;;;;;;;;;;17.35;100.00;100127.84;5074129;28;19924;-79
2021/09/22 07:02:50;;;;;;;;;;;;;;;17.32;100.00;100125.91;5094376;28;19968;-78
2021/09/22 07:05:17;;;;;;;;;;;;;;;17.15;100.00;100127.16;5096060;28;19923;-78
2021/09/22 07:07:48;;;;;;;;;;;;;;;17.33;100.00;100130.31;5112850;28;19924;-78
2021/09/22 07:10:15;;;;;;;;;;;;;;;17.00;100.00;100125.94;5096786;28;19947;-78
2021/09/22 07:12:42;;;;;;;;;;;;;;;17.00;100.00;100125.94;5101591;28;20181;-78
2021/09/22 07:15:10;;;;;;;;;;;;;;;16.93;100.00;100132.56;5113101;28;19928;-78
2021/09/22 07:17:36;;;;;;;;;;;;;;;16.81;100.00;100129.66;5093205;28;19924;-78
2021/09/22 07:20:04;;;;;;;;;;;;;;;17.20;100.00;100127.44;5055339;28;20391;-79
2021/09/22 07:22:32;;;;;;;;;;;;;;;17.07;100.00;100128.59;5088644;28;19982;-78
2021/09/22 07:24:59;;;;;;;;;;;;;;;16.68;100.00;100125.91;5093703;28;19953;-78
2021/09/22 07:27:26;;;;;;;;;;;;;;;17.11;100.00;100134.94;5113548;28;19931;-78
2021/09/22 07:29:55;;;;;;;;;;;;;;;17.19;100.00;100127.88;5095425;28;19924;-78
2021/09/22 07:32:22;;;;;;;;;;;;;;;17.47;100.00;100135.63;5099138;28;19971;-78
2021/09/22 07:34:49;;;;;;;;;;;;;;;17.53;100.00;100131.03;5112327;28;20382;-78
2021/09/22 07:37:18;;;;;;;;;;;;;;;17.46;100.00;100125.56;5112231;28;20426;-78
2021/09/22 07:39:45;;;;;;;;;;;;;;;17.36;100.00;100123.78;5113337;28;19928;-78
2021/09/22 07:42:13;;;;;;;;;;;;;;;17.44;100.00;100120.38;5113511;28;19992;-78
2021/09/22 07:44:41;;;;;;;;;;;;;;;17.46;100.00;100128.41;5113256;28;19924;-79
2021/09/22 07:47:08;;;;;;;;;;;;;;;17.27;100.00;100123.63;5080470;28;19924;-79
2021/09/22 07:49:35;;;;;;;;;;;;;;;17.51;100.00;100122.19;5095784;28;19946;-78
2021/09/22 07:52:02;;;;;;;;;;;;;;;17.53;100.00;100131.03;5097155;28;19924;-79
2021/09/22 07:54:30;;;;;;;;;;;;;;;17.98;100.00;100116.84;5113249;28;19923;-78
2021/09/22 07:56:57;;;;;;;;;;;;;;;18.35;100.00;100124.59;5113070;28;19953;-79
2021/09/22 07:59:24;;;;;;;;;;;;;;;18.24;100.00;100130.56;5113047;28;20375;-79
2021/09/22 08:01:51;;;;;;;;;;;;;;;18.47;100.00;100127.47;5095029;28;19981;-79
2021/09/22 08:04:18;;;;;;;;;;;;;;;18.95;100.00;100107.28;5069722;28;19931;-79
2021/09/22 08:06:45;;;;;;;;;;;;;;;18.19;100.00;100116.22;5101760;28;19923;-79
2021/09/22 08:09:12;;;;;;;;;;;;;;;18.59;100.00;100123.84;5098578;28;19969;-78
2021/09/22 08:11:40;;;;;;;;;;;;;;;19.16;100.00;100115.06;5111730;28;20029;-79
2021/09/22 08:14:13;;;;;;;;;;;;;;;19.26;100.00;100105.44;5111557;28;19923;-78
2021/09/22 08:16:41;;;;;;;;;;;;;;;19.03;100.00;100111.47;5112839;28;19959;-79
2021/09/22 08:19:08;;;;;;;;;;;;;;;18.88;100.00;100106.75;5112907;28;19934;-79
2021/09/22 08:21:36;;;;;;;;;;;;;;;19.17;100.00;100105.34;5078315;28;19931;-79
2021/09/22 08:24:03;;;;;;;;;;;;;;;18.60;100.00;100108.44;5080104;28;20023;-78
2021/09/22 08:26:30;;;;;;;;;;;;;;;18.42;100.00;100122.38;5096638;28;19924;-78
2021/09/22 08:28:57;;;;;;;;;;;;;;;18.15;100.00;100127.63;5116972;28;20032;-78
2021/09/22 08:31:24;;;;;;;;;;;;;;;17.73;100.00;100120.38;5109452;28;20386;-78
2021/09/22 08:33:51;;;;;;;;;;;;;;;18.10;100.00;100116.84;5110654;28;19954;-79
2021/09/22 08:36:18;;;;;;;;;;;;;;;18.41;100.00;100123.63;5089277;28;19928;-78
2021/09/22 08:38:46;;;;;;;;;;;;;;;18.90;100.00;100122.00;5075332;28;19932;-79
2021/09/22 08:41:14;;;;;;;;;;;;;;;19.14;100.00;100116.78;5113828;28;19923;-79
2021/09/22 08:43:41;;;;;;;;;;;;;;;20.04;100.00;100102.63;5116809;28;20500;-79
2021/09/22 08:46:08;;;;;;;;;;;;;;;20.81;100.00;100100.34;5115450;28;19932;-79
2021/09/22 08:48:35;;;;;;;;;;;;;;;20.96;100.00;100084.31;5111454;28;19930;-79
2021/09/22 08:51:02;;;;;;;;;;;;;;;21.65;100.00;100067.50;5115571;28;19931;-79
2021/09/22 08:53:29;;;;;;;;;;;;;;;21.29;100.00;100061.81;5116518;28;19976;-79
2021/09/22 08:55:56;;;;;;;;;;;;;;;21.63;100.00;100075.69;5116642;28;19931;-79
2021/09/22 08:58:23;;;;;;;;;;;;;;;21.75;100.00;100068.31;5114372;28;19931;-79
2021/09/22 09:00:51;;;;;;;;;;;;;;;21.54;100.00;100072.84;5086289;28;19934;-79
2021/09/22 09:03:31;;;;;;;;;;;;;;;21.73;100.00;100074.44;5116311;28;19981;-79
2021/09/22 09:06:34;;;;;;;;;;;;;;;20.72;100.00;100082.50;5104446;28;19923;-79
2021/09/22 09:09:02;;;;;;;;;;;;;;;20.62;100.00;100083.69;5014254;28;20409;-79
2021/09/22 09:11:33;;;;;;;;;;;;;;;20.26;100.00;100094.91;5024784;28;19932;-79
2021/09/22 09:14:03;;;;;;;;;;;;;;;19.89;100.00;100078.88;5033101;28;20419;-79
2021/09/22 09:16:31;;;;;;;;;;;;;;;18.83;100.00;100076.97;5016685;28;20397;-78
2021/09/22 09:18:58;;;;;;;;;;;;;;;18.93;100.00;100087.13;5000341;28;19936;-79
2021/09/22 09:21:25;;;;;;;;;;;;;;;19.02;100.00;100095.72;5033353;28;19925;-79
2021/09/22 09:23:57;;;;;;;;;;;;;;;18.45;100.00;100104.47;5016553;28;19929;-78
2021/09/22 09:26:28;;;;;;;;;;;;;;;18.68;100.00;100120.34;5000037;28;19955;-79
2021/09/22 09:28:58;;;;;;;;;;;;;;;18.76;100.00;100116.84;5031794;28;19925;-78
2021/09/22 09:31:30;;;;;;;;;;;;;;;18.81;100.00;100127.56;5021055;28;19935;-78
2021/09/22 09:33:59;;;;;;;;;;;;;;;18.92;100.00;100122.38;4982766;28;20313;-79
2021/09/22 09:36:28;;;;;;;;;;;;;;;19.07;100.00;100120.63;4996985;28;19956;-79
2021/09/22 09:38:56;;;;;;;;;;;;;;;19.82;100.00;100118.84;4990008;28;19926;-79
2021/09/22 09:41:27;;;;;;;;;;;;;;;18.90;100.00;100110.69;5018321;28;20023;-78
2021/09/22 09:43:54;;;;;;;;;;;;;;;18.69;100.00;100122.72;5099194;28;19985;-78
2021/09/22 09:46:22;;;;;;;;;;;;;;;18.56;100.00;100115.47;5114242;28;19923;-79
2021/09/22 09:49:02;;;;;;;;;;;;;;;18.80;100.00;100117.50;5102608;28;19924;-79
2021/09/22 09:51:38;;;;;;;;;;;;;;;18.96;100.00;100123.03;5110508;28;20026;-79
2021/09/22 09:54:32;;;;;;;;;;;;;;;19.04;100.00;100110.22;5115092;28;19927;-79
2021/09/22 09:57:19;;;;;;;;;;;;;;;19.30;100.00;100114.63;5115094;28;20382;-79
2021/09/22 09:59:51;;;;;;;;;;;;;;;19.68;100.00;100103.94;5114139;28;19930;-79
2021/09/22 10:02:26;;;;;;;;;;;;;;;19.30;100.00;100106.13;5114425;28;20481;-79
2021/09/22 10:04:55;;;;;;;;;;;;;;;19.52;100.00;100103.34;5115406;28;19924;-78
2021/09/22 10:07:22;;;;;;;;;;;;;;;19.44;100.00;100104.81;5099591;28;20359;-79
2021/09/22 10:09:50;;;;;;;;;;;;;;;19.63;100.00;100113.03;5113167;28;19931;-79
2021/09/22 10:12:19;;;;;;;;;;;;;;;19.67;100.00;100101.56;5113635;28;19971;-79
2021/09/22 10:14:47;;;;;;;;;;;;;;;19.64;100.00;100108.16;5113999;28;19955;-79
2021/09/22 10:17:15;;;;;;;;;;;;;;;19.77;100.00;100097.53;5113798;28;19924;-78
2021/09/22 10:19:43;;;;;;;;;;;;;;;19.72;100.00;100105.84;5105658;28;19977;-79
2021/09/22 10:22:11;;;;;;;;;;;;;;;19.41;100.00;100100.88;5109307;28;19924;-79
2021/09/22 10:24:50;;;;;;;;;;;;;;;18.91;100.00;100111.50;5048764;27;2064774;-79
2021/09/22 10:27:29;;;;;;;;;;;;;;;18.87;100.00;100117.25;5089980;28;20029;-79
2021/09/22 10:30:11;;;;;;;;;;;;;;;18.97;100.00;100110.47;5090190;28;19966;-79
2021/09/22 10:32:51;;;;;;;;;;;;;;;19.02;100.00;100107.03;5090071;28;19939;-79
2021/09/22 10:35:35;;;;;;;;;;;;;;;19.10;100.00;100099.91;5076739;28;19916;-79
2021/09/22 10:38:21;;;;;;;;;;;;;;;18.92;100.00;100096.06;5143599;27;19969;-79
2021/09/22 10:41:01;;;;;;;;;;;;;;;18.77;100.00;100106.28;5040188;27;2015870;-79
2021/09/22 10:43:43;;;;;;;;;;;;;;;18.98;100.00;100100.72;5140687;27;19916;-79
2021/09/22 10:46:23;;;;;;;;;;;;;;;19.29;100.00;100093.22;5130765;27;20508;-79
2021/09/22 10:49:05;;;;;;;;;;;;;;;19.56;100.00;100090.63;5090259;28;20388;-79
2021/09/22 10:51:47;;;;;;;;;;;;;;;19.34;100.00;100086.94;5090009;28;19912;-79
2021/09/22 10:54:27;;;;;;;;;;;;;;;19.81;100.00;100077.56;5110290;27;19966;-79
2021/09/22 10:57:11;;;;;;;;;;;;;;;19.99;100.00;100072.00;5090083;28;19943;-79
2021/09/22 11:00:06;;;;;;;;;;;;;;;20.30;100.00;100058.63;5090305;28;20364;-79
2021/09/22 11:02:49;;;;;;;;;;;;;;;19.99;100.00;100061.47;5090193;28;19982;-79
2021/09/22 11:05:28;;;;;;;;;;;;;;;19.34;100.00;100061.44;5090087;28;19966;-79
2021/09/22 11:08:05;;;;;;;;;;;;;;;19.24;100.00;100056.13;5082069;27;1991257;-79
2021/09/22 11:10:45;;;;;;;;;;;;;;;19.11;100.00;100066.72;5044096;27;2018129;-79
2021/09/22 11:13:28;;;;;;;;;;;;;;;19.29;100.00;100059.22;5070126;28;19970;-79
2021/09/22 11:16:08;;;;;;;;;;;;;;;19.23;100.00;100048.88;5070210;28;20326;-79
2021/09/22 11:18:46;;;;;;;;;;;;;;;19.11;100.00;100059.00;5062390;27;2073949;-79
2021/09/22 11:21:25;;;;;;;;;;;;;;;19.30;100.00;100057.94;5101032;27;20285;-79
2021/09/22 11:24:08;;;;;;;;;;;;;;;19.26;100.00;100060.09;5109953;27;19966;-79
2021/09/22 11:26:53;;;;;;;;;;;;;;;19.07;100.00;100051.84;5090109;28;19945;-79
2021/09/22 11:29:41;;;;;;;;;;;;;;;18.95;100.00;100058.34;5090207;28;19912;-79
2021/09/22 11:32:38;;;;;;;;;;;;;;;18.76;100.00;100056.59;5039293;27;2058209;-78
2021/09/22 11:35:19;;;;;;;;;;;;;;;19.08;100.00;100054.25;5090213;28;19962;-79
2021/09/22 11:37:59;;;;;;;;;;;;;;;19.30;100.00;100052.28;5090083;28;20449;-79
2021/09/22 11:40:37;;;;;;;;;;;;;;;19.20;100.00;100033.59;5110591;27;19965;-79
2021/09/22 11:43:18;;;;;;;;;;;;;;;19.30;100.00;100037.31;5090228;28;20318;-79
2021/09/22 11:46:00;;;;;;;;;;;;;;;19.93;100.00;100019.97;5090247;28;19959;-79
2021/09/22 11:48:40;;;;;;;;;;;;;;;20.13;100.00;100006.25;5090368;28;19916;-79
2021/09/22 11:51:21;;;;;;;;;;;;;;;19.96;100.00;99999.19;5089966;28;19967;-79
2021/09/22 11:54:00;;;;;;;;;;;;;;;19.81;100.00;99989.66;5090126;28;19920;-79
2021/09/22 11:56:39;;;;;;;;;;;;;;;20.20;100.00;100001.06;5110256;27;20310;-79
2021/09/22 11:59:16;;;;;;;;;;;;;;;20.52;100.00;99988.41;5050561;27;2042790;-79
2021/09/22 12:01:55;;;;;;;;;;;;;;;20.69;100.00;99981.97;5110401;27;19916;-79
2021/09/22 12:06:01;;;;;;;;;;;;;;;20.46;100.00;99973.25;5110273;27;20439;-79
2021/09/22 12:08:43;;;;;;;;;;;;;;;21.27;100.00;99968.47;5089996;28;19912;-79
2021/09/22 12:11:23;;;;;;;;;;;;;;;20.98;100.00;99964.50;5110805;27;19912;-79
2021/09/22 12:14:02;;;;;;;;;;;;;;;21.04;100.00;99957.75;5090268;28;19924;-79
2021/09/22 12:16:40;;;;;;;;;;;;;;;21.08;100.00;99952.69;5110539;27;19981;-79
2021/09/22 12:19:18;;;;;;;;;;;;;;;21.30;100.00;99932.63;5104407;27;20333;-79
2021/09/22 12:21:57;;;;;;;;;;;;;;;21.09;100.00;99922.22;5089885;28;19912;-79
2021/09/22 12:24:38;;;;;;;;;;;;;;;20.95;100.00;99905.81;5090190;28;19912;-79
2021/09/22 12:27:18;;;;;;;;;;;;;;;20.71;100.00;99901.97;5110353;27;19912;-79
2021/09/22 12:30:28;;;;;;;;;;;;;;;21.01;100.00;99916.06;5110620;27;19913;-79
2021/09/22 12:33:08;;;;;;;;;;;;;;;21.18;100.00;99900.28;5090363;28;19913;-79
2021/09/22 12:35:47;;;;;;;;;;;;;;;20.85;100.00;99913.53;5090078;28;20434;-79
2021/09/22 12:38:25;;;;;;;;;;;;;;;20.95;100.00;99922.84;5090092;28;20421;-79
2021/09/22 12:41:07;;;;;;;;;;;;;;;21.22;100.00;99915.09;5090284;28;20441;-80
2021/09/22 12:43:47;;;;;;;;;;;;;;;21.04;100.00;99905.78;5110724;27;20363;-79
2021/09/22 12:46:34;;;;;;;;;;;;;;;21.57;100.00;99900.53;5090101;28;19912;-79
2021/09/22 12:49:13;;;;;;;;;;;;;;;21.03;100.00;99901.38;5089914;28;19939;-79
2021/09/22 12:51:53;;;;;;;;;;;;;;;20.99;100.00;99903.63;5089918;28;19912;-79
2021/09/22 12:54:30;;;;;;;;;;;;;;;20.57;100.00;99908.31;5068896;27;2017018;-79
2021/09/22 12:57:12;;;;;;;;;;;;;;;20.17;100.00;99893.38;5110221;27;20271;-79
2021/09/22 12:59:52;;;;;;;;;;;;;;;20.64;100.00;99896.63;5110525;27;19958;-79
2021/09/22 13:02:29;;;;;;;;;;;;;;;20.61;100.00;99889.06;5041208;27;1996207;-79